Time;durP1;ratioP1;P1;durP2;ratioP2;P2;SDS_P1;SDS_P2;PMS_P1;PMS_P2;Temp;Humidity;BMP_temperature;BMP_pressure;BME280_temperature;BME280_humidity;BME280_pressure;Samples;Min_cycle;Max_cycle;Signal;HPM_P1;HPM_P2
2021/08/12 00:00:26;;;;;;;4.10;2.20;;;;;;;;;;5075225;28;20477;-73
2021/08/12 00:02:52;;;;;;;4.93;2.53;;;;;;;;;;5075257;28;20606;-72
2021/08/12 00:05:18;;;;;;;4.38;2.50;;;;;;;;;;5079049;28;20043;-72
2021/08/12 00:07:44;;;;;;;3.63;2.13;;;;;;;;;;5075120;28;20021;-71
2021/08/12 00:10:11;;;;;;;3.92;2.70;;;;;;;;;;5075291;28;20051;-71
2021/08/12 00:12:37;;;;;;;5.50;2.78;;;;;;;;;;5056982;28;20565;-72
2021/08/12 00:15:03;;;;;;;7.03;2.80;;;;;;;;;;5075556;28;20039;-71
2021/08/12 00:17:29;;;;;;;8.18;2.97;;;;;;;;;;5075110;28;20032;-73
2021/08/12 00:19:55;;;;;;;4.90;2.53;;;;;;;;;;5074506;28;20545;-71
2021/08/12 00:22:22;;;;;;;5.40;2.47;;;;;;;;;;5075966;28;20028;-71
2021/08/12 00:24:48;;;;;;;5.70;2.38;;;;;;;;;;5074858;28;20553;-71
2021/08/12 00:27:14;;;;;;;4.30;2.20;;;;;;;;;;5073573;28;20448;-74
2021/08/12 00:29:40;;;;;;;5.03;2.22;;;;;;;;;;5075012;28;20058;-71
2021/08/12 00:32:06;;;;;;;3.38;2.40;;;;;;;;;;5074349;28;20024;-72
2021/08/12 00:34:36;;;;;;;5.90;2.80;;;;;;;;;;5075483;28;20028;-71
2021/08/12 00:37:04;;;;;;;3.28;2.30;;;;;;;;;;5075168;28;20032;-73
2021/08/12 00:39:30;;;;;;;3.33;2.38;;;;;;;;;;5074812;28;20012;-71
2021/08/12 00:41:56;;;;;;;4.63;2.70;;;;;;;;;;5074067;28;20031;-71
2021/08/12 00:44:22;;;;;;;4.32;2.63;;;;;;;;;;5074057;28;20032;-71
2021/08/12 00:46:48;;;;;;;3.35;2.50;;;;;;;;;;5074374;28;20028;-71
2021/08/12 00:49:14;;;;;;;5.25;2.50;;;;;;;;;;5074339;28;20054;-72
2021/08/12 00:51:41;;;;;;;5.53;2.58;;;;;;;;;;5074709;28;20032;-71
2021/08/12 00:54:07;;;;;;;4.32;2.67;;;;;;;;;;5074444;28;20078;-73
2021/08/12 00:56:33;;;;;;;4.25;2.47;;;;;;;;;;5074680;28;20020;-72
2021/08/12 00:58:59;;;;;;;3.22;2.55;;;;;;;;;;5074236;28;20031;-72
2021/08/12 01:01:26;;;;;;;5.22;2.45;;;;;;;;;;5073984;28;20688;-72
2021/08/12 01:03:52;;;;;;;5.50;2.50;;;;;;;;;;5074385;28;20055;-71
2021/08/12 01:06:25;;;;;;;4.13;2.67;;;;;;;;;;5078735;28;20364;-72
2021/08/12 01:09:06;;;;;;;4.80;2.50;;;;;;;;;;5074695;28;20028;-71
2021/08/12 01:11:44;;;;;;;4.78;2.20;;;;;;;;;;5072847;28;20024;-74
2021/08/12 01:14:31;;;;;;;7.38;2.20;;;;;;;;;;5074477;28;20024;-70
2021/08/12 01:17:00;;;;;;;3.55;2.30;;;;;;;;;;5073964;28;20033;-71
2021/08/12 01:19:44;;;;;;;5.85;2.35;;;;;;;;;;5073957;28;20030;-72
2021/08/12 01:22:12;;;;;;;3.08;2.20;;;;;;;;;;5073458;28;20037;-71
2021/08/12 01:24:39;;;;;;;2.75;2.10;;;;;;;;;;5073939;28;20032;-74
2021/08/12 01:27:11;;;;;;;5.10;2.45;;;;;;;;;;5072686;28;20394;-71
2021/08/12 01:29:37;;;;;;;3.85;2.63;;;;;;;;;;5071107;28;20035;-73
2021/08/12 01:32:25;;;;;;;3.83;2.50;;;;;;;;;;5073769;28;20040;-74
2021/08/12 01:35:07;;;;;;;5.10;2.20;;;;;;;;;;5073456;28;20032;-73
2021/08/12 01:37:35;;;;;;;4.30;2.28;;;;;;;;;;5075491;28;20101;-72
2021/08/12 01:40:03;;;;;;;6.28;1.80;;;;;;;;;;5074250;28;20151;-70
2021/08/12 01:42:30;;;;;;;2.50;1.73;;;;;;;;;;5077412;28;20035;-74
2021/08/12 01:44:58;;;;;;;2.10;1.90;;;;;;;;;;5076432;28;20098;-72
2021/08/12 01:47:24;;;;;;;3.10;2.33;;;;;;;;;;5071824;28;20025;-71
2021/08/12 01:49:52;;;;;;;4.30;2.20;;;;;;;;;;5061335;28;20032;-70
2021/08/12 01:52:19;;;;;;;4.30;2.85;;;;;;;;;;5059667;28;20434;-72
2021/08/12 01:54:45;;;;;;;2.97;1.92;;;;;;;;;;5073645;28;20027;-71
2021/08/12 01:57:12;;;;;;;2.20;1.98;;;;;;;;;;5073247;28;20021;-71
2021/08/12 01:59:39;;;;;;;5.95;2.70;;;;;;;;;;5074249;28;20025;-74
2021/08/12 02:02:06;;;;;;;5.05;2.42;;;;;;;;;;5072771;28;20396;-71
2021/08/12 02:04:33;;;;;;;3.70;2.20;;;;;;;;;;5056147;28;20526;-71
2021/08/12 02:07:00;;;;;;;3.95;3.15;;;;;;;;;;5076438;28;20478;-72
2021/08/12 02:09:26;;;;;;;3.80;2.55;;;;;;;;;;5073386;28;20027;-74
2021/08/12 02:11:52;;;;;;;5.10;2.25;;;;;;;;;;5072338;28;20032;-71
2021/08/12 02:14:18;;;;;;;6.60;2.60;;;;;;;;;;5071906;28;20090;-71
2021/08/12 02:16:44;;;;;;;2.78;2.00;;;;;;;;;;5072903;28;20387;-74
2021/08/12 02:19:10;;;;;;;5.00;2.25;;;;;;;;;;5072084;28;20025;-72
2021/08/12 02:21:47;;;;;;;5.00;2.30;;;;;;;;;;5072817;28;20487;-74
2021/08/12 02:24:18;;;;;;;3.88;2.40;;;;;;;;;;5072305;28;20028;-71
2021/08/12 02:26:47;;;;;;;5.07;2.00;;;;;;;;;;5073312;28;20024;-72
2021/08/12 02:29:15;;;;;;;4.72;2.38;;;;;;;;;;5072726;28;20031;-74
2021/08/12 02:31:45;;;;;;;4.88;2.15;;;;;;;;;;5074567;28;20108;-73
2021/08/12 02:34:12;;;;;;;5.97;2.42;;;;;;;;;;5072322;28;20028;-73
2021/08/12 02:36:39;;;;;;;6.75;2.13;;;;;;;;;;5073880;28;20025;-73
2021/08/12 02:39:06;;;;;;;7.43;2.53;;;;;;;;;;5072760;28;20027;-72
2021/08/12 02:41:33;;;;;;;3.42;2.05;;;;;;;;;;5076079;28;20025;-74
2021/08/12 02:43:59;;;;;;;6.82;2.42;;;;;;;;;;5072495;28;20024;-71
2021/08/12 02:46:26;;;;;;;7.25;2.58;;;;;;;;;;5072528;28;20036;-71
2021/08/12 02:48:53;;;;;;;2.95;2.38;;;;;;;;;;5072329;28;20107;-71
2021/08/12 02:51:20;;;;;;;8.13;2.40;;;;;;;;;;5072678;28;20029;-71
2021/08/12 02:53:46;;;;;;;8.40;2.45;;;;;;;;;;5071742;28;20036;-72
2021/08/12 02:56:12;;;;;;;7.18;2.40;;;;;;;;;;5072583;28;20032;-73
2021/08/12 02:58:41;;;;;;;4.30;2.20;;;;;;;;;;5072194;28;20044;-72
2021/08/12 03:01:07;;;;;;;10.45;2.78;;;;;;;;;;5072717;28;20036;-72
2021/08/12 03:03:36;;;;;;;4.28;2.33;;;;;;;;;;5072485;28;20029;-71
2021/08/12 03:06:03;;;;;;;5.32;2.40;;;;;;;;;;5074034;28;20029;-72
2021/08/12 03:08:30;;;;;;;4.32;2.00;;;;;;;;;;5072984;28;20028;-72
2021/08/12 03:10:56;;;;;;;6.65;2.70;;;;;;;;;;5072306;28;20029;-72
2021/08/12 03:13:23;;;;;;;5.85;3.22;;;;;;;;;;5071906;28;20025;-72
2021/08/12 03:15:49;;;;;;;6.97;2.20;;;;;;;;;;5072381;28;20028;-74
2021/08/12 03:18:15;;;;;;;5.03;1.85;;;;;;;;;;5071441;28;20025;-72
2021/08/12 03:20:42;;;;;;;4.13;2.20;;;;;;;;;;5072092;28;20036;-71
2021/08/12 03:23:09;;;;;;;6.10;1.95;;;;;;;;;;5072050;28;20025;-72
2021/08/12 03:25:35;;;;;;;8.20;3.45;;;;;;;;;;5072167;28;20036;-71
2021/08/12 03:28:01;;;;;;;5.63;2.20;;;;;;;;;;5071790;28;20109;-73
2021/08/12 03:30:27;;;;;;;6.05;2.08;;;;;;;;;;5072115;28;20021;-73
2021/08/12 03:32:53;;;;;;;4.90;2.10;;;;;;;;;;5072216;28;20382;-72
2021/08/12 03:35:19;;;;;;;5.15;2.00;;;;;;;;;;5071679;28;20095;-70
2021/08/12 03:37:46;;;;;;;4.50;2.17;;;;;;;;;;5072571;28;20029;-72
2021/08/12 03:40:12;;;;;;;9.32;2.47;;;;;;;;;;5072416;28;20075;-73
2021/08/12 03:42:39;;;;;;;6.38;2.50;;;;;;;;;;5071606;28;20072;-73
2021/08/12 03:45:05;;;;;;;5.45;2.20;;;;;;;;;;5072363;28;20024;-71
2021/08/12 03:47:32;;;;;;;4.95;1.95;;;;;;;;;;5071347;28;20024;-71
2021/08/12 03:49:58;;;;;;;7.10;2.85;;;;;;;;;;5071293;28;20031;-71
2021/08/12 03:52:24;;;;;;;7.35;3.22;;;;;;;;;;5071726;28;20443;-73
2021/08/12 03:54:50;;;;;;;4.80;2.30;;;;;;;;;;5072160;28;20078;-72
2021/08/12 03:57:16;;;;;;;6.35;2.28;;;;;;;;;;5071530;28;20108;-72
2021/08/12 03:59:43;;;;;;;4.68;2.22;;;;;;;;;;5073726;28;20040;-73
2021/08/12 04:02:09;;;;;;;7.80;2.50;;;;;;;;;;5074013;28;20524;-71
2021/08/12 04:04:35;;;;;;;5.07;2.53;;;;;;;;;;5075391;28;20090;-71
2021/08/12 04:07:01;;;;;;;5.50;2.03;;;;;;;;;;5073076;28;20031;-71
2021/08/12 04:09:27;;;;;;;6.93;2.40;;;;;;;;;;5075810;28;20032;-74
2021/08/12 04:11:53;;;;;;;4.47;2.38;;;;;;;;;;5075050;28;20040;-72
2021/08/12 04:14:19;;;;;;;6.22;2.20;;;;;;;;;;5073771;28;20479;-74
2021/08/12 04:16:45;;;;;;;8.55;2.03;;;;;;;;;;5075143;28;20408;-73
2021/08/12 04:19:12;;;;;;;6.80;2.17;;;;;;;;;;5075005;28;20020;-71
2021/08/12 04:21:39;;;;;;;8.15;2.42;;;;;;;;;;5074903;28;20024;-73
2021/08/12 04:24:05;;;;;;;21.33;3.40;;;;;;;;;;5073719;28;20438;-74
2021/08/12 04:26:31;;;;;;;6.15;2.15;;;;;;;;;;5074864;28;20541;-73
2021/08/12 04:28:58;;;;;;;4.82;2.08;;;;;;;;;;5075057;28;20040;-71
2021/08/12 04:31:24;;;;;;;6.20;2.05;;;;;;;;;;5074664;28;20514;-72
2021/08/12 04:33:50;;;;;;;7.03;2.50;;;;;;;;;;5075304;28;20422;-72
2021/08/12 04:36:18;;;;;;;9.05;1.98;;;;;;;;;;5078186;28;20028;-72
2021/08/12 04:38:44;;;;;;;2.70;1.77;;;;;;;;;;5076895;28;20025;-71
2021/08/12 04:41:10;;;;;;;8.00;2.50;;;;;;;;;;5082576;28;20021;-72
2021/08/12 04:43:36;;;;;;;6.35;2.17;;;;;;;;;;5072926;28;20016;-73
2021/08/12 04:46:03;;;;;;;7.50;2.70;;;;;;;;;;5074644;28;20029;-71
2021/08/12 04:48:29;;;;;;;2.28;1.90;;;;;;;;;;5074290;28;20596;-71
2021/08/12 04:50:55;;;;;;;4.97;2.40;;;;;;;;;;5075695;28;20031;-72
2021/08/12 04:53:21;;;;;;;7.50;2.10;;;;;;;;;;5074376;28;20028;-72
2021/08/12 04:55:47;;;;;;;5.28;2.60;;;;;;;;;;5074088;28;20031;-73
2021/08/12 04:58:13;;;;;;;7.22;2.13;;;;;;;;;;5074180;28;20040;-73
2021/08/12 05:00:39;;;;;;;9.10;2.10;;;;;;;;;;5074848;28;20111;-72
2021/08/12 05:03:05;;;;;;;6.20;2.80;;;;;;;;;;5085399;28;20067;-73
2021/08/12 05:05:32;;;;;;;5.05;2.03;;;;;;;;;;5074398;28;20017;-71
2021/08/12 05:07:59;;;;;;;3.65;1.90;;;;;;;;;;5075135;28;20031;-71
2021/08/12 05:10:25;;;;;;;7.85;2.05;;;;;;;;;;5075243;28;20028;-72
2021/08/12 05:12:52;;;;;;;9.05;2.50;;;;;;;;;;5075107;28;20472;-72
2021/08/12 05:15:18;;;;;;;7.43;2.28;;;;;;;;;;5075426;28;20040;-71
2021/08/12 05:17:44;;;;;;;4.93;2.33;;;;;;;;;;5074277;28;20024;-71
2021/08/12 05:20:10;;;;;;;6.85;2.42;;;;;;;;;;5073915;28;20031;-73
2021/08/12 05:22:36;;;;;;;8.75;2.30;;;;;;;;;;5072355;28;20025;-72
2021/08/12 05:25:03;;;;;;;9.13;2.58;;;;;;;;;;5072349;28;20032;-71
2021/08/12 05:27:29;;;;;;;5.70;2.38;;;;;;;;;;5072065;28;20024;-71
2021/08/12 05:29:55;;;;;;;7.30;2.20;;;;;;;;;;5074528;28;20047;-71
2021/08/12 05:32:22;;;;;;;5.40;2.28;;;;;;;;;;5074048;28;20028;-71
2021/08/12 05:34:48;;;;;;;4.32;2.72;;;;;;;;;;5073241;28;20024;-71
2021/08/12 05:37:14;;;;;;;5.05;2.58;;;;;;;;;;5073635;28;20411;-73
2021/08/12 05:39:40;;;;;;;5.93;2.15;;;;;;;;;;5073866;28;20031;-72
2021/08/12 05:42:06;;;;;;;5.57;2.00;;;;;;;;;;5073259;28;20048;-73
2021/08/12 05:44:32;;;;;;;4.05;3.03;;;;;;;;;;5077638;28;20044;-73
2021/08/12 05:46:58;;;;;;;7.30;3.25;;;;;;;;;;5075416;28;20059;-73
2021/08/12 05:49:25;;;;;;;8.90;2.30;;;;;;;;;;5075268;28;20028;-74
2021/08/12 05:51:51;;;;;;;8.88;2.33;;;;;;;;;;5073606;28;20155;-72
2021/08/12 05:54:18;;;;;;;5.03;2.10;;;;;;;;;;5073633;28;20482;-72
2021/08/12 05:56:44;;;;;;;9.10;2.53;;;;;;;;;;5079732;28;20020;-72
2021/08/12 05:59:10;;;;;;;8.13;2.30;;;;;;;;;;5073408;28;20026;-72
2021/08/12 06:01:36;;;;;;;8.65;2.30;;;;;;;;;;5073562;28;20050;-73
2021/08/12 06:04:02;;;;;;;3.90;1.88;;;;;;;;;;5072217;28;20520;-71
2021/08/12 06:06:30;;;;;;;11.27;2.70;;;;;;;;;;5072614;28;20033;-72
2021/08/12 06:08:56;;;;;;;4.32;2.10;;;;;;;;;;5073183;28;20020;-71
2021/08/12 06:11:22;;;;;;;4.75;2.05;;;;;;;;;;5072813;28;20119;-71
2021/08/12 06:13:48;;;;;;;4.80;1.88;;;;;;;;;;5072846;28;20028;-71
2021/08/12 06:16:14;;;;;;;5.30;1.85;;;;;;;;;;5073328;28;20096;-71
2021/08/12 06:18:40;;;;;;;7.10;2.67;;;;;;;;;;5073115;28;20032;-73
2021/08/12 06:21:06;;;;;;;7.18;1.95;;;;;;;;;;5066939;28;20020;-73
2021/08/12 06:23:32;;;;;;;6.93;2.13;;;;;;;;;;5062054;28;20566;-71
2021/08/12 06:25:59;;;;;;;5.68;2.33;;;;;;;;;;5066984;28;20024;-71
2021/08/12 06:28:25;;;;;;;5.90;2.80;;;;;;;;;;5068676;28;20111;-71
2021/08/12 06:30:51;;;;;;;5.75;2.28;;;;;;;;;;5061188;28;20021;-72
2021/08/12 06:33:17;;;;;;;10.73;2.47;;;;;;;;;;5070937;28;20479;-71
2021/08/12 06:35:43;;;;;;;6.57;2.60;;;;;;;;;;5073111;28;20074;-71
2021/08/12 06:38:09;;;;;;;3.65;2.22;;;;;;;;;;5066683;28;20027;-71
2021/08/12 06:40:36;;;;;;;3.92;2.20;;;;;;;;;;5061782;28;20085;-73
2021/08/12 06:43:02;;;;;;;7.40;1.98;;;;;;;;;;5072771;28;20078;-70
2021/08/12 06:45:28;;;;;;;7.32;2.60;;;;;;;;;;5069100;28;20572;-71
2021/08/12 06:47:54;;;;;;;8.02;2.33;;;;;;;;;;5073019;28;20030;-71
2021/08/12 06:50:21;;;;;;;5.78;2.10;;;;;;;;;;5070581;28;20039;-70
2021/08/12 06:52:48;;;;;;;6.82;2.00;;;;;;;;;;5058400;28;20086;-70
2021/08/12 06:55:14;;;;;;;7.55;2.17;;;;;;;;;;5067546;28;20028;-71
2021/08/12 06:57:40;;;;;;;18.52;2.55;;;;;;;;;;5058922;28;20021;-71
2021/08/12 07:00:07;;;;;;;6.10;2.20;;;;;;;;;;5071293;28;20032;-71
2021/08/12 07:02:33;;;;;;;4.70;2.03;;;;;;;;;;5071562;28;20093;-71
2021/08/12 07:05:12;;;;;;;3.10;1.85;;;;;;;;;;5067900;28;20036;-73
2021/08/12 07:07:39;;;;;;;3.22;2.00;;;;;;;;;;5054189;28;20059;-71
2021/08/12 07:10:05;;;;;;;6.75;2.20;;;;;;;;;;5060289;28;20033;-70
2021/08/12 07:12:31;;;;;;;4.40;2.97;;;;;;;;;;5063717;28;20490;-71
2021/08/12 07:14:57;;;;;;;6.60;3.45;;;;;;;;;;5066434;28;20025;-71
2021/08/12 07:17:25;;;;;;;7.63;2.25;;;;;;;;;;5064456;28;20483;-71
2021/08/12 07:19:51;;;;;;;5.70;1.85;;;;;;;;;;5059794;28;20025;-72
2021/08/12 07:22:20;;;;;;;8.68;2.38;;;;;;;;;;5066514;28;20025;-71
2021/08/12 07:24:46;;;;;;;5.15;2.03;;;;;;;;;;5060434;28;20052;-71
2021/08/12 07:27:13;;;;;;;7.45;1.90;;;;;;;;;;5054349;28;20029;-70
2021/08/12 07:29:39;;;;;;;4.18;2.60;;;;;;;;;;5055756;28;20023;-75
2021/08/12 07:32:05;;;;;;;4.43;2.22;;;;;;;;;;5057082;28;20033;-72
2021/08/12 07:34:31;;;;;;;5.50;2.58;;;;;;;;;;5062771;28;20025;-70
2021/08/12 07:36:57;;;;;;;5.28;2.03;;;;;;;;;;5061867;28;20032;-71
2021/08/12 07:39:23;;;;;;;4.70;1.70;;;;;;;;;;5071092;28;20325;-69
2021/08/12 07:41:50;;;;;;;5.95;3.08;;;;;;;;;;5065806;28;20047;-70
2021/08/12 07:44:16;;;;;;;9.50;2.90;;;;;;;;;;5077495;28;20032;-72
2021/08/12 07:46:42;;;;;;;2.72;2.35;;;;;;;;;;5072699;28;20024;-70
2021/08/12 07:49:08;;;;;;;6.32;2.00;;;;;;;;;;5065870;28;20102;-70
2021/08/12 07:51:34;;;;;;;8.02;2.58;;;;;;;;;;5073097;28;20050;-68
2021/08/12 07:54:00;;;;;;;6.00;1.90;;;;;;;;;;5073108;28;20083;-72
2021/08/12 07:56:26;;;;;;;4.78;2.58;;;;;;;;;;5079410;28;20021;-72
2021/08/12 07:58:52;;;;;;;4.75;2.10;;;;;;;;;;5078732;28;20043;-69
2021/08/12 08:01:19;;;;;;;3.22;1.83;;;;;;;;;;5078114;28;20017;-68
2021/08/12 08:03:46;;;;;;;7.60;2.97;;;;;;;;;;5079128;28;20028;-70
2021/08/12 08:06:12;;;;;;;7.53;2.28;;;;;;;;;;5079403;28;20024;-71
2021/08/12 08:08:39;;;;;;;6.43;2.47;;;;;;;;;;5075948;28;20029;-71
2021/08/12 08:11:05;;;;;;;9.02;2.42;;;;;;;;;;5075710;28;20017;-72
2021/08/12 08:13:31;;;;;;;6.47;2.33;;;;;;;;;;5076191;28;20473;-73
2021/08/12 08:15:58;;;;;;;8.82;3.50;;;;;;;;;;5076468;28;20036;-72
2021/08/12 08:18:24;;;;;;;7.00;2.20;;;;;;;;;;5075788;28;20020;-72
2021/08/12 08:20:51;;;;;;;6.30;2.03;;;;;;;;;;5076254;28;20537;-71
2021/08/12 08:23:17;;;;;;;6.90;2.47;;;;;;;;;;5076286;28;20505;-71
2021/08/12 08:25:43;;;;;;;5.75;2.70;;;;;;;;;;5077590;28;20038;-71
2021/08/12 08:28:09;;;;;;;4.60;2.30;;;;;;;;;;5076981;28;20463;-72
2021/08/12 08:30:36;;;;;;;3.97;2.05;;;;;;;;;;5075845;28;20050;-72
2021/08/12 08:33:02;;;;;;;8.63;3.05;;;;;;;;;;5075728;28;20031;-72
2021/08/12 08:35:29;;;;;;;5.88;2.17;;;;;;;;;;5075783;28;20046;-71
2021/08/12 08:37:56;;;;;;;7.13;2.22;;;;;;;;;;5076527;28;20020;-71
2021/08/12 08:40:22;;;;;;;5.00;2.10;;;;;;;;;;5076081;28;20503;-71
2021/08/12 08:42:49;;;;;;;3.95;2.30;;;;;;;;;;5075203;28;20127;-71
2021/08/12 08:45:19;;;;;;;6.00;2.30;;;;;;;;;;5076424;28;20056;-71
2021/08/12 08:47:46;;;;;;;3.28;1.75;;;;;;;;;;5077050;28;20032;-72
2021/08/12 08:50:12;;;;;;;14.35;3.55;;;;;;;;;;5076042;28;20032;-71
2021/08/12 08:52:38;;;;;;;8.43;2.22;;;;;;;;;;5074669;28;20033;-72
2021/08/12 08:55:05;;;;;;;3.95;2.22;;;;;;;;;;5075246;28;20095;-69
2021/08/12 08:57:32;;;;;;;5.75;2.72;;;;;;;;;;5074103;28;20094;-70
2021/08/12 08:59:58;;;;;;;5.22;2.17;;;;;;;;;;5077606;28;20044;-68
2021/08/12 09:02:24;;;;;;;7.55;2.63;;;;;;;;;;5075858;28;20040;-73
2021/08/12 09:04:50;;;;;;;7.40;2.60;;;;;;;;;;5079414;28;20032;-72
2021/08/12 09:07:17;;;;;;;9.27;2.22;;;;;;;;;;5076886;28;20067;-71
2021/08/12 09:09:43;;;;;;;5.10;2.00;;;;;;;;;;5076401;28;20032;-70
2021/08/12 09:12:09;;;;;;;6.55;2.30;;;;;;;;;;5075023;28;20028;-71
2021/08/12 09:14:37;;;;;;;9.27;3.00;;;;;;;;;;5076736;28;20025;-71
2021/08/12 09:17:23;;;;;;;5.28;3.03;;;;;;;;;;5075531;28;20113;-71
2021/08/12 09:20:01;;;;;;;6.43;2.25;;;;;;;;;;5075701;28;20044;-69
2021/08/12 09:22:29;;;;;;;15.95;3.42;;;;;;;;;;5076712;28;20479;-70
2021/08/12 09:24:55;;;;;;;8.55;2.65;;;;;;;;;;5075465;28;20024;-71
2021/08/12 09:27:25;;;;;;;3.97;2.10;;;;;;;;;;5078573;28;20086;-71
2021/08/12 09:30:08;;;;;;;9.40;2.97;;;;;;;;;;5076920;28;20031;-72
2021/08/12 09:32:44;;;;;;;5.82;2.30;;;;;;;;;;5076129;28;20039;-72
2021/08/12 09:35:10;;;;;;;6.72;2.53;;;;;;;;;;5079407;28;20032;-72
2021/08/12 09:37:37;;;;;;;10.10;2.88;;;;;;;;;;5083911;28;20046;-71
2021/08/12 09:40:04;;;;;;;9.05;2.75;;;;;;;;;;5078593;28;20025;-71
2021/08/12 09:42:30;;;;;;;4.80;2.63;;;;;;;;;;5083870;28;20027;-69
2021/08/12 09:44:56;;;;;;;5.90;2.42;;;;;;;;;;5083041;28;20028;-73
2021/08/12 09:47:25;;;;;;;4.90;2.00;;;;;;;;;;5080609;28;20077;-72
2021/08/12 09:49:52;;;;;;;6.18;2.78;;;;;;;;;;5080347;28;20031;-70
2021/08/12 09:52:26;;;;;;;5.70;2.50;;;;;;;;;;5076905;28;20100;-71
2021/08/12 09:55:13;;;;;;;5.38;2.15;;;;;;;;;;5074928;28;20020;-72
2021/08/12 09:57:47;;;;;;;3.28;2.42;;;;;;;;;;5076085;28;20478;-72
2021/08/12 10:00:25;;;;;;;4.55;1.98;;;;;;;;;;5074592;28;20029;-73
2021/08/12 10:02:52;;;;;;;6.68;2.42;;;;;;;;;;5076738;28;20055;-67
2021/08/12 10:05:18;;;;;;;4.75;2.40;;;;;;;;;;5057769;28;20509;-72
2021/08/12 10:07:45;;;;;;;6.38;2.53;;;;;;;;;;5075764;28;20551;-71
2021/08/12 10:10:20;;;;;;;6.30;2.30;;;;;;;;;;5075160;28;20052;-71
2021/08/12 10:12:51;;;;;;;7.15;2.10;;;;;;;;;;5075399;28;20059;-70
2021/08/12 10:15:22;;;;;;;4.95;2.22;;;;;;;;;;5077445;28;20031;-71
2021/08/12 10:17:48;;;;;;;6.80;2.38;;;;;;;;;;5074252;28;20045;-74
2021/08/12 10:20:35;;;;;;;7.07;2.58;;;;;;;;;;5075120;28;20070;-72
2021/08/12 10:23:02;;;;;;;9.55;2.45;;;;;;;;;;5074493;28;20028;-69
2021/08/12 10:25:29;;;;;;;8.63;2.65;;;;;;;;;;5073590;28;20020;-73
2021/08/12 10:27:56;;;;;;;5.45;2.50;;;;;;;;;;5073959;28;20079;-72
2021/08/12 10:30:23;;;;;;;10.70;2.85;;;;;;;;;;5072285;28;20243;-71
2021/08/12 10:32:54;;;;;;;7.10;2.40;;;;;;;;;;5052849;28;20021;-71
2021/08/12 10:35:20;;;;;;;13.35;3.60;;;;;;;;;;5071374;28;20024;-72
2021/08/12 10:37:48;;;;;;;6.97;2.63;;;;;;;;;;5071021;28;20037;-73
2021/08/12 10:40:14;;;;;;;6.95;3.63;;;;;;;;;;5075619;28;20056;-74
2021/08/12 10:42:43;;;;;;;7.60;2.47;;;;;;;;;;5070219;28;20028;-70
2021/08/12 10:45:10;;;;;;;4.95;2.70;;;;;;;;;;5054702;28;20037;-72
2021/08/12 10:47:55;;;;;;;7.50;3.30;;;;;;;;;;5065326;28;20023;-71
2021/08/12 10:50:21;;;;;;;7.50;2.47;;;;;;;;;;5070388;28;20383;-72
2021/08/12 10:53:06;;;;;;;7.03;3.10;;;;;;;;;;5064244;28;20031;-71
2021/08/12 10:55:52;;;;;;;5.93;2.65;;;;;;;;;;5073189;28;20032;-72
2021/08/12 11:00:51;;;;;;;9.32;2.80;;;;;;;;;;5053389;28;20029;-72
2021/08/12 11:03:33;;;;;;;8.60;2.90;;;;;;;;;;5070989;28;20067;-72
2021/08/12 11:06:05;;;;;;;4.47;2.28;;;;;;;;;;5062484;28;20025;-72
2021/08/12 11:08:54;;;;;;;7.47;2.50;;;;;;;;;;5063194;28;20028;-71
2021/08/12 11:11:23;;;;;;;5.13;3.00;;;;;;;;;;5075295;28;20099;-72
2021/08/12 11:13:50;;;;;;;4.30;2.65;;;;;;;;;;5075852;28;20131;-69
2021/08/12 11:16:16;;;;;;;5.43;2.63;;;;;;;;;;5071911;28;20024;-70
2021/08/12 11:18:50;;;;;;;5.93;2.85;;;;;;;;;;5080290;28;20021;-70
2021/08/12 11:21:31;;;;;;;4.00;2.00;;;;;;;;;;5057677;28;20090;-73
2021/08/12 11:24:01;;;;;;;7.53;2.78;;;;;;;;;;5071695;28;20017;-75
2021/08/12 11:26:47;;;;;;;8.70;2.67;;;;;;;;;;5074302;28;20020;-72
2021/08/12 11:29:27;;;;;;;10.07;2.72;;;;;;;;;;5063801;28;20044;-74
2021/08/12 11:32:02;;;;;;;9.52;3.25;;;;;;;;;;5074512;28;20025;-72
2021/08/12 11:34:32;;;;;;;10.85;3.22;;;;;;;;;;5075311;28;20035;-72
2021/08/12 11:37:25;;;;;;;19.05;4.75;;;;;;;;;;5076638;28;20043;-71
2021/08/12 11:40:00;;;;;;;5.65;2.75;;;;;;;;;;5074193;28;20033;-73
2021/08/12 11:42:28;;;;;;;7.53;2.70;;;;;;;;;;5057557;28;20029;-71
2021/08/12 11:44:55;;;;;;;6.00;2.58;;;;;;;;;;5058149;28;20391;-73
2021/08/12 11:47:22;;;;;;;6.93;2.28;;;;;;;;;;5058360;28;20036;-72
2021/08/12 11:49:49;;;;;;;6.85;2.53;;;;;;;;;;5058672;28;20100;-71
2021/08/12 11:52:30;;;;;;;6.07;2.45;;;;;;;;;;5057180;28;20033;-73
2021/08/12 11:55:15;;;;;;;6.25;2.80;;;;;;;;;;5063433;28;20024;-74
2021/08/12 11:57:43;;;;;;;9.05;2.83;;;;;;;;;;5091172;28;20023;-73
2021/08/12 12:00:18;;;;;;;11.98;2.92;;;;;;;;;;5098732;28;20099;-72
2021/08/12 12:02:55;;;;;;;5.18;2.85;;;;;;;;;;5095639;28;20044;-76
2021/08/12 12:05:28;;;;;;;4.55;2.40;;;;;;;;;;5096753;28;20032;-71
2021/08/12 12:08:05;;;;;;;7.47;2.22;;;;;;;;;;5097237;28;20028;-71
2021/08/12 12:10:35;;;;;;;6.82;3.95;;;;;;;;;;5097845;28;20016;-72
2021/08/12 12:13:09;;;;;;;8.63;2.80;;;;;;;;;;5097062;28;20028;-73
2021/08/12 12:15:36;;;;;;;10.40;2.88;;;;;;;;;;5097184;28;20020;-74
2021/08/12 12:18:03;;;;;;;11.15;2.90;;;;;;;;;;5097214;28;20144;-72
2021/08/12 12:20:30;;;;;;;9.30;3.15;;;;;;;;;;5096854;28;20044;-71
2021/08/12 12:22:57;;;;;;;8.70;3.22;;;;;;;;;;5097585;28;20032;-74
2021/08/12 12:25:23;;;;;;;11.40;2.88;;;;;;;;;;5097895;28;20024;-73
2021/08/12 12:27:49;;;;;;;10.07;2.92;;;;;;;;;;5097349;28;20028;-70
2021/08/12 12:30:16;;;;;;;6.10;2.85;;;;;;;;;;5097097;28;20111;-70
2021/08/12 12:32:43;;;;;;;9.93;2.85;;;;;;;;;;5097357;28;20032;-73
2021/08/12 12:35:10;;;;;;;11.40;2.80;;;;;;;;;;5097469;28;20020;-71
2021/08/12 12:37:37;;;;;;;9.95;2.90;;;;;;;;;;5097541;28;20020;-73
2021/08/12 12:40:16;;;;;;;6.60;2.55;;;;;;;;;;5096129;28;20390;-68
2021/08/12 12:42:46;;;;;;;9.18;3.22;;;;;;;;;;5097106;28;20604;-70
2021/08/12 12:45:12;;;;;;;6.57;2.75;;;;;;;;;;5095364;28;20028;-67
2021/08/12 12:47:39;;;;;;;7.07;2.85;;;;;;;;;;5096040;28;20024;-70
2021/08/12 12:50:08;;;;;;;10.07;3.70;;;;;;;;;;5098319;28;20024;-72
2021/08/12 12:52:52;;;;;;;8.93;2.80;;;;;;;;;;5097893;28;20054;-69
2021/08/12 12:55:26;;;;;;;8.48;2.35;;;;;;;;;;5098079;28;20024;-70
2021/08/12 12:57:53;;;;;;;7.72;3.22;;;;;;;;;;5097586;28;20028;-69
2021/08/12 13:00:22;;;;;;;6.95;2.80;;;;;;;;;;5097052;28;20477;-72
2021/08/12 13:02:52;;;;;;;6.28;2.38;;;;;;;;;;5098202;28;20498;-69
2021/08/12 13:05:19;;;;;;;9.70;3.20;;;;;;;;;;5098913;28;20039;-69
2021/08/12 13:07:45;;;;;;;6.03;2.83;;;;;;;;;;5096194;28;20024;-72
2021/08/12 13:10:23;;;;;;;5.90;3.13;;;;;;;;;;5096281;28;20028;-69
2021/08/12 13:13:00;;;;;;;5.18;2.40;;;;;;;;;;5094301;28;20386;-70
2021/08/12 13:15:26;;;;;;;10.05;2.78;;;;;;;;;;5095406;28;20019;-71
2021/08/12 13:18:00;;;;;;;4.65;2.20;;;;;;;;;;5094382;28;20028;-71
2021/08/12 13:20:26;;;;;;;4.82;2.20;;;;;;;;;;5095322;28;20023;-72
2021/08/12 13:22:56;;;;;;;4.90;2.20;;;;;;;;;;5096309;28;20020;-70
2021/08/12 13:25:23;;;;;;;5.65;2.55;;;;;;;;;;5095096;28;20032;-70
2021/08/12 13:27:57;;;;;;;7.20;2.60;;;;;;;;;;5095153;28;20020;-70
2021/08/12 13:30:30;;;;;;;5.85;3.08;;;;;;;;;;5094554;28;20028;-70
2021/08/12 13:32:57;;;;;;;7.60;2.20;;;;;;;;;;5093386;28;20417;-70
2021/08/12 13:35:23;;;;;;;5.70;2.45;;;;;;;;;;5094729;28;20042;-71
2021/08/12 13:37:50;;;;;;;8.23;2.80;;;;;;;;;;5095313;28;20099;-71
2021/08/12 13:40:16;;;;;;;5.35;2.60;;;;;;;;;;5094543;28;20024;-70
2021/08/12 13:42:42;;;;;;;4.25;2.30;;;;;;;;;;5096312;28;20024;-71
2021/08/12 13:45:09;;;;;;;5.10;2.33;;;;;;;;;;5094391;28;20024;-70
2021/08/12 13:47:35;;;;;;;4.43;2.10;;;;;;;;;;5096509;28;20036;-71
2021/08/12 13:50:01;;;;;;;5.10;2.60;;;;;;;;;;5095088;28;20097;-70
2021/08/12 13:52:27;;;;;;;3.58;2.25;;;;;;;;;;5094281;28;20024;-69
2021/08/12 13:54:53;;;;;;;3.72;2.53;;;;;;;;;;5094269;28;20474;-71
2021/08/12 13:57:19;;;;;;;3.38;2.03;;;;;;;;;;5094973;28;20027;-71
2021/08/12 13:59:45;;;;;;;5.22;2.10;;;;;;;;;;5094803;28;20496;-72
2021/08/12 14:02:11;;;;;;;3.95;2.33;;;;;;;;;;5094194;28;20044;-72
2021/08/12 14:04:37;;;;;;;5.60;2.30;;;;;;;;;;5094191;28;20031;-72
2021/08/12 14:07:04;;;;;;;4.03;2.20;;;;;;;;;;5094471;28;20431;-72
2021/08/12 14:09:30;;;;;;;6.15;2.47;;;;;;;;;;5094374;28;20020;-72
2021/08/12 14:11:56;;;;;;;5.15;2.53;;;;;;;;;;5094393;28;20064;-71
2021/08/12 14:14:23;;;;;;;5.53;2.45;;;;;;;;;;5094562;28;20024;-72
2021/08/12 14:16:49;;;;;;;6.25;2.40;;;;;;;;;;5094319;28;20467;-72
2021/08/12 14:19:15;;;;;;;4.85;2.30;;;;;;;;;;5094643;28;20020;-72
2021/08/12 14:21:42;;;;;;;5.88;2.45;;;;;;;;;;5095779;28;20442;-71
2021/08/12 14:24:08;;;;;;;5.68;2.58;;;;;;;;;;5094449;28;20103;-73
2021/08/12 14:26:34;;;;;;;5.90;2.60;;;;;;;;;;5094323;28;20063;-72
2021/08/12 14:29:00;;;;;;;8.00;3.10;;;;;;;;;;5092998;28;20020;-72
2021/08/12 14:31:27;;;;;;;8.75;2.35;;;;;;;;;;5094431;28;20474;-72
2021/08/12 14:33:53;;;;;;;6.55;2.55;;;;;;;;;;5094378;28;20028;-71
2021/08/12 14:36:19;;;;;;;4.40;2.17;;;;;;;;;;5094149;28;20024;-70
2021/08/12 14:38:47;;;;;;;5.60;2.67;;;;;;;;;;5094064;28;20489;-71
2021/08/12 14:41:16;;;;;;;6.15;2.65;;;;;;;;;;5093999;28;20398;-68
2021/08/12 14:43:42;;;;;;;4.70;2.20;;;;;;;;;;5093790;28;20073;-72
2021/08/12 14:46:08;;;;;;;5.45;2.42;;;;;;;;;;5093784;28;20387;-72
2021/08/12 14:48:35;;;;;;;7.80;3.17;;;;;;;;;;5094122;28;20021;-71
2021/08/12 14:51:02;;;;;;;7.32;2.83;;;;;;;;;;5093659;28;20378;-73